createdAt,value
2023-05-19T00:00:37.137Z,6.00
2023-05-19T00:03:05.871Z,5.97
2023-05-19T00:05:35.625Z,6.05
2023-05-19T00:08:05.546Z,6.01
2023-05-19T00:10:34.331Z,6.13
2023-05-19T00:13:02.934Z,6.16
2023-05-19T00:15:31.613Z,6.23
2023-05-19T00:18:01.013Z,6.21
2023-05-19T00:20:29.235Z,6.25
2023-05-19T00:22:57.332Z,6.17
2023-05-19T00:25:25.856Z,6.13
2023-05-19T00:27:53.916Z,6.14
2023-05-19T00:30:22.952Z,6.10
2023-05-19T00:32:51.006Z,6.13
2023-05-19T00:35:21.667Z,6.12
2023-05-19T00:37:49.827Z,6.10
2023-05-19T00:40:18.150Z,6.17
2023-05-19T00:42:46.251Z,6.18
2023-05-19T00:45:14.298Z,6.15
2023-05-19T00:47:42.432Z,6.19
2023-05-19T00:50:11.426Z,6.19
2023-05-19T00:52:40.824Z,6.28
2023-05-19T00:55:09.826Z,6.44
2023-05-19T00:57:38.716Z,6.25
2023-05-19T01:00:08.319Z,6.16
2023-05-19T01:02:38.178Z,6.15
2023-05-19T01:05:07.417Z,6.10
2023-05-19T01:07:36.831Z,6.08
2023-05-19T01:10:07.196Z,6.05
2023-05-19T01:12:36.044Z,6.02
2023-05-19T01:15:05.461Z,6.06
2023-05-19T01:17:47.025Z,6.00
2023-05-19T01:20:21.928Z,6.03
2023-05-19T01:23:14.999Z,6.02
2023-05-19T01:26:14.156Z,6.03
2023-05-19T01:29:08.625Z,5.86
2023-05-19T01:31:40.157Z,5.88
2023-05-19T01:34:09.587Z,5.91
2023-05-19T01:36:39.619Z,5.93
2023-05-19T01:39:08.038Z,5.98
2023-05-19T01:41:36.535Z,6.00
2023-05-19T01:44:04.810Z,6.07
2023-05-19T01:46:33.100Z,6.08
2023-05-19T01:49:03.226Z,6.07
2023-05-19T01:51:31.496Z,6.03
2023-05-19T01:53:59.683Z,6.04
2023-05-19T01:56:39.357Z,6.01
2023-05-19T01:59:17.989Z,5.98
2023-05-19T02:01:53.375Z,5.93
2023-05-19T02:04:32.428Z,5.95
2023-05-19T02:07:04.952Z,5.90
2023-05-19T02:09:40.761Z,5.88
2023-05-19T02:12:15.435Z,5.82
2023-05-19T02:14:50.717Z,5.81
2023-05-19T02:17:20.923Z,5.81
2023-05-19T02:19:50.397Z,5.83
2023-05-19T02:22:18.409Z,5.79
2023-05-19T02:24:47.735Z,5.80
2023-05-19T02:27:15.740Z,5.74
2023-05-19T02:29:43.776Z,5.63
2023-05-19T02:32:12.053Z,5.68
2023-05-19T02:34:40.136Z,5.65
2023-05-19T02:37:09.568Z,5.68
2023-05-19T02:39:37.574Z,5.51
2023-05-19T02:42:06.243Z,5.61
2023-05-19T02:44:34.263Z,5.63
2023-05-19T02:47:02.337Z,5.59
2023-05-19T02:49:31.001Z,5.68
2023-05-19T02:51:59.013Z,5.63
2023-05-19T02:54:28.411Z,5.70
2023-05-19T02:56:56.411Z,5.72
2023-05-19T02:59:25.601Z,5.72
2023-05-19T03:01:57.374Z,5.71
2023-05-19T03:04:25.464Z,5.64
2023-05-19T03:06:54.124Z,5.72
2023-05-19T03:09:22.285Z,5.76
2023-05-19T03:11:51.681Z,5.81
2023-05-19T03:14:23.879Z,5.79
2023-05-19T03:16:52.450Z,5.82
2023-05-19T03:19:20.867Z,5.77
2023-05-19T03:21:49.668Z,5.83
2023-05-19T03:24:18.075Z,5.83
2023-05-19T03:26:46.113Z,5.88
2023-05-19T03:29:15.460Z,5.84
2023-05-19T03:31:43.609Z,5.90
2023-05-19T03:34:11.593Z,5.88
2023-05-19T03:36:39.933Z,5.94
2023-05-19T03:39:08.207Z,5.95
2023-05-19T03:41:36.238Z,6.05
2023-05-19T03:44:04.326Z,6.05
2023-05-19T03:46:33.704Z,6.08
2023-05-19T03:49:01.714Z,5.93
2023-05-19T03:51:30.098Z,5.89
2023-05-19T03:53:58.244Z,5.97
2023-05-19T03:56:27.653Z,5.99
2023-05-19T03:58:55.949Z,5.97
2023-05-19T04:01:23.977Z,5.98
2023-05-19T04:03:53.397Z,5.95
2023-05-19T04:06:22.076Z,6.01
2023-05-19T04:08:50.253Z,6.05
2023-05-19T04:11:20.043Z,6.07
2023-05-19T04:13:48.329Z,6.18
2023-05-19T04:16:16.446Z,6.24
2023-05-19T04:18:46.409Z,6.29
2023-05-19T04:21:16.016Z,6.32
2023-05-19T04:23:44.062Z,6.20
2023-05-19T04:26:12.194Z,6.12
2023-05-19T04:28:42.323Z,6.19
2023-05-19T04:31:10.996Z,6.17
2023-05-19T04:33:39.284Z,6.17
2023-05-19T04:36:11.487Z,6.28
2023-05-19T04:38:41.200Z,6.36
2023-05-19T04:41:10.839Z,6.39
2023-05-19T04:43:41.550Z,6.49
2023-05-19T04:46:12.307Z,6.52
2023-05-19T04:48:41.646Z,6.58
2023-05-19T04:51:09.732Z,6.56
2023-05-19T04:53:40.156Z,6.71
2023-05-19T04:56:10.586Z,6.63
2023-05-19T04:58:40.582Z,6.70
2023-05-19T05:01:10.628Z,6.82
2023-05-19T05:03:38.814Z,6.81
2023-05-19T05:06:07.055Z,6.89
2023-05-19T05:08:35.198Z,6.95
2023-05-19T05:11:04.018Z,7.02
2023-05-19T05:13:34.164Z,7.10
2023-05-19T05:16:04.714Z,7.10
2023-05-19T05:18:33.528Z,7.09
2023-05-19T05:21:02.192Z,7.26
2023-05-19T05:23:30.795Z,7.36
2023-05-19T05:25:59.509Z,7.46
2023-05-19T05:28:27.520Z,7.37
2023-05-19T05:30:57.880Z,7.33
2023-05-19T05:33:27.331Z,7.42
2023-05-19T05:35:55.552Z,7.54
2023-05-19T05:38:23.604Z,7.56
2023-05-19T05:40:51.622Z,7.61
2023-05-19T05:43:19.633Z,7.57
2023-05-19T05:45:47.679Z,7.53
2023-05-19T05:48:17.833Z,7.72
2023-05-19T05:50:46.724Z,7.74
2023-05-19T05:53:19.768Z,7.95
2023-05-19T05:55:48.460Z,7.87
2023-05-19T05:58:17.064Z,7.90
2023-05-19T06:00:45.452Z,7.97
2023-05-19T06:03:14.552Z,8.04
2023-05-19T06:05:44.222Z,8.18
2023-05-19T06:08:12.302Z,8.29
2023-05-19T06:10:41.724Z,8.25
2023-05-19T06:13:09.772Z,8.43
2023-05-19T06:15:37.969Z,8.52
2023-05-19T06:18:06.127Z,8.72
2023-05-19T06:20:34.297Z,8.83
2023-05-19T06:23:04.057Z,8.81
2023-05-19T06:25:32.339Z,9.08
2023-05-19T06:28:00.622Z,9.30
2023-05-19T06:30:28.733Z,9.38
2023-05-19T06:32:57.483Z,9.19
2023-05-19T06:35:25.683Z,9.35
2023-05-19T06:37:53.699Z,9.57
2023-05-19T06:40:23.286Z,9.63
2023-05-19T06:42:51.339Z,9.79
2023-05-19T06:45:21.903Z,9.93
2023-05-19T06:47:49.989Z,9.98
2023-05-19T06:50:18.145Z,10.10
2023-05-19T06:52:47.062Z,10.14
2023-05-19T06:55:15.119Z,10.17
2023-05-19T06:57:44.800Z,10.21
2023-05-19T07:00:16.756Z,10.23
2023-05-19T07:02:45.984Z,10.19
2023-05-19T07:05:14.112Z,10.30
2023-05-19T07:07:42.251Z,10.34
2023-05-19T07:10:11.373Z,10.35
2023-05-19T07:12:39.435Z,10.51
2023-05-19T07:15:09.616Z,10.67
2023-05-19T07:17:37.725Z,10.73
2023-05-19T07:20:10.018Z,10.81
2023-05-19T07:22:39.720Z,10.92
2023-05-19T07:25:08.507Z,11.07
2023-05-19T07:27:36.994Z,11.10
2023-05-19T07:30:05.465Z,11.33
2023-05-19T07:32:34.909Z,11.42
2023-05-19T07:35:03.035Z,11.56
2023-05-19T07:37:31.139Z,11.67
2023-05-19T07:39:59.186Z,11.81
2023-05-19T07:42:27.222Z,11.96
2023-05-19T07:44:55.287Z,12.06
2023-05-19T07:47:23.302Z,12.27
2023-05-19T07:49:52.637Z,12.42
2023-05-19T07:52:20.705Z,12.53
2023-05-19T07:54:48.745Z,12.52
2023-05-19T07:57:16.757Z,12.63
2023-05-19T07:59:44.787Z,12.70
2023-05-19T08:02:12.830Z,12.89
2023-05-19T08:04:41.160Z,12.93
2023-05-19T08:07:10.822Z,12.96
2023-05-19T08:09:38.838Z,13.11
2023-05-19T08:12:07.312Z,13.13
2023-05-19T08:14:35.309Z,13.30
2023-05-19T08:17:03.683Z,13.42
2023-05-19T08:19:31.939Z,13.38
2023-05-19T08:22:01.198Z,13.40
2023-05-19T08:24:32.770Z,13.40
2023-05-19T08:27:01.137Z,13.35
2023-05-19T08:29:29.180Z,13.42
2023-05-19T08:31:58.427Z,13.50
2023-05-19T08:34:26.471Z,13.64
2023-05-19T08:36:57.793Z,13.84
2023-05-19T08:39:27.060Z,13.86
2023-05-19T08:41:56.856Z,13.81
2023-05-19T08:44:24.957Z,13.89
2023-05-19T08:46:56.043Z,13.71
2023-05-19T08:49:28.332Z,13.85
2023-05-19T08:52:03.499Z,14.01
2023-05-19T08:54:38.458Z,14.06
2023-05-19T08:57:09.977Z,14.02
2023-05-19T08:59:38.723Z,13.92
2023-05-19T09:02:07.638Z,13.94
2023-05-19T09:04:37.021Z,13.95
2023-05-19T09:07:05.386Z,13.77
2023-05-19T09:09:33.686Z,13.68
2023-05-19T09:12:01.759Z,13.67
2023-05-19T09:14:31.411Z,13.71
2023-05-19T09:16:59.556Z,13.94
2023-05-19T09:19:30.268Z,14.10
2023-05-19T09:22:03.216Z,14.21
2023-05-19T09:24:31.592Z,14.21
2023-05-19T09:27:00.481Z,14.00
2023-05-19T09:29:28.702Z,13.97
2023-05-19T09:32:01.022Z,14.03
2023-05-19T09:34:29.241Z,14.13
2023-05-19T09:36:58.046Z,14.20
2023-05-19T09:39:26.590Z,14.34
2023-05-19T09:41:55.461Z,14.37
2023-05-19T09:44:24.292Z,14.21
2023-05-19T09:46:53.952Z,14.25
2023-05-19T09:49:25.296Z,14.40
2023-05-19T09:51:55.432Z,14.16
2023-05-19T09:54:24.780Z,14.38
2023-05-19T09:56:57.643Z,14.55
2023-05-19T09:59:27.267Z,14.52
2023-05-19T10:01:57.376Z,14.54
2023-05-19T10:04:28.374Z,14.53
2023-05-19T10:07:00.020Z,14.47
2023-05-19T10:09:29.733Z,14.29
2023-05-19T10:11:59.208Z,14.30
2023-05-19T10:14:29.210Z,14.35
2023-05-19T10:16:59.375Z,14.40
2023-05-19T10:19:29.891Z,14.43
2023-05-19T10:21:58.231Z,14.55
2023-05-19T10:24:26.497Z,14.74
2023-05-19T10:26:58.955Z,14.64
2023-05-19T10:29:31.648Z,14.62
2023-05-19T10:32:05.297Z,14.55
2023-05-19T10:35:11.387Z,14.71
2023-05-19T10:37:46.665Z,14.75
2023-05-19T10:40:23.133Z,14.95
2023-05-19T10:43:04.098Z,14.75
2023-05-19T10:45:37.853Z,14.80
2023-05-19T10:48:06.096Z,14.85
2023-05-19T10:50:38.700Z,15.07
2023-05-19T10:53:15.677Z,15.09
2023-05-19T10:55:46.907Z,15.18
2023-05-19T10:58:15.104Z,15.19
2023-05-19T11:00:43.178Z,15.09
2023-05-19T11:03:15.572Z,15.23
2023-05-19T11:05:45.725Z,15.46
2023-05-19T11:08:14.352Z,15.39
2023-05-19T11:10:46.170Z,15.60
2023-05-19T11:13:22.635Z,15.70
2023-05-19T11:15:51.046Z,15.67
2023-05-19T11:18:20.707Z,15.73
2023-05-19T11:20:58.007Z,15.71
2023-05-19T11:23:27.000Z,15.82
2023-05-19T11:25:55.017Z,15.80
2023-05-19T11:28:26.186Z,15.87
2023-05-19T11:30:57.740Z,15.87
2023-05-19T11:33:27.769Z,16.04
2023-05-19T11:35:59.058Z,16.07
2023-05-19T11:38:28.109Z,16.22
2023-05-19T11:40:57.365Z,16.20
2023-05-19T11:43:25.881Z,16.28
2023-05-19T11:45:55.917Z,16.27
2023-05-19T11:48:25.626Z,16.42
2023-05-19T11:50:53.971Z,16.60
2023-05-19T11:53:24.363Z,16.65
2023-05-19T11:55:52.743Z,16.84
2023-05-19T11:58:27.069Z,16.76
2023-05-19T12:00:55.283Z,16.89
2023-05-19T12:03:28.802Z,17.08
2023-05-19T12:05:57.895Z,17.25
2023-05-19T12:08:28.252Z,17.26
2023-05-19T12:10:56.863Z,17.43
2023-05-19T12:13:24.979Z,17.56
2023-05-19T12:15:53.537Z,17.28
2023-05-19T12:18:21.794Z,17.73
2023-05-19T12:20:50.104Z,17.36
2023-05-19T12:23:18.170Z,17.59
2023-05-19T12:25:47.762Z,18.14
2023-05-19T12:28:17.516Z,18.42
2023-05-19T12:30:49.000Z,19.49
2023-05-19T12:33:17.087Z,20.97
2023-05-19T12:35:46.183Z,21.29
2023-05-19T12:38:15.998Z,21.79
2023-05-19T12:40:47.313Z,21.09
2023-05-19T12:43:22.220Z,21.52
2023-05-19T12:45:50.414Z,19.94
2023-05-19T12:48:22.479Z,19.29
2023-05-19T12:50:52.860Z,19.88
2023-05-19T12:53:21.056Z,20.98
2023-05-19T12:55:53.979Z,22.01
2023-05-19T12:58:23.165Z,21.85
2023-05-19T13:00:51.976Z,21.46
2023-05-19T13:03:21.980Z,22.15
2023-05-19T13:05:51.914Z,23.41
2023-05-19T13:08:21.598Z,24.82
2023-05-19T13:10:51.030Z,24.05
2023-05-19T13:13:19.353Z,24.32
2023-05-19T13:15:49.413Z,24.81
2023-05-19T13:18:18.308Z,25.57
2023-05-19T13:20:50.109Z,25.62
2023-05-19T13:23:18.735Z,25.08
2023-05-19T13:25:47.070Z,24.30
2023-05-19T13:28:16.488Z,23.87
2023-05-19T13:30:45.622Z,24.68
2023-05-19T13:33:13.861Z,24.18
2023-05-19T13:35:42.176Z,25.21
2023-05-19T13:38:11.271Z,25.51
2023-05-19T13:40:39.990Z,25.23
2023-05-19T13:43:09.068Z,24.77
2023-05-19T13:45:38.772Z,23.77
2023-05-19T13:48:08.311Z,23.34
2023-05-19T13:50:36.568Z,24.01
2023-05-19T13:53:04.753Z,24.58
2023-05-19T13:55:33.096Z,26.42
2023-05-19T13:58:01.214Z,25.96
2023-05-19T14:00:29.519Z,24.53
2023-05-19T14:03:00.353Z,22.53
2023-05-19T14:05:29.080Z,23.17
2023-05-19T14:07:57.965Z,24.53
2023-05-19T14:10:26.262Z,25.33
2023-05-19T14:13:25.289Z,24.59
2023-05-19T14:15:42.497Z,23.23
2023-05-19T14:18:12.207Z,23.06
2023-05-19T14:20:40.436Z,23.78
2023-05-19T14:23:08.519Z,23.32
2023-05-19T14:25:36.575Z,23.46
2023-05-19T14:28:04.766Z,24.38
2023-05-19T14:30:33.021Z,24.23
2023-05-19T14:33:01.248Z,24.95
2023-05-19T14:35:30.668Z,24.54
2023-05-19T14:37:58.697Z,24.92
2023-05-19T14:40:26.782Z,25.26
2023-05-19T14:42:54.891Z,25.86
2023-05-19T14:45:22.991Z,25.26
2023-05-19T14:47:51.103Z,25.18
2023-05-19T14:50:19.288Z,25.71
2023-05-19T14:52:48.668Z,26.07
2023-05-19T14:55:16.696Z,26.99
2023-05-19T14:57:44.702Z,27.74
2023-05-19T15:00:13.795Z,27.76
2023-05-19T15:02:42.011Z,25.42
2023-05-19T15:05:10.209Z,23.11
2023-05-19T15:07:38.749Z,23.20
2023-05-19T15:10:09.451Z,24.06
2023-05-19T15:12:37.525Z,24.05
2023-05-19T15:15:06.496Z,25.41
2023-05-19T15:17:34.597Z,25.55
2023-05-19T15:20:02.703Z,25.02
2023-05-19T15:22:30.811Z,26.78
2023-05-19T15:24:59.376Z,25.84
2023-05-19T15:27:28.902Z,24.42
2023-05-19T15:29:56.904Z,24.93
2023-05-19T15:32:25.024Z,25.59
2023-05-19T15:34:53.067Z,24.86
2023-05-19T15:37:21.100Z,24.60
2023-05-19T15:39:49.541Z,25.23
2023-05-19T15:42:17.572Z,25.20
2023-05-19T15:44:47.064Z,24.58
2023-05-19T15:47:15.116Z,23.58
2023-05-19T15:49:43.194Z,22.10
2023-05-19T15:52:11.167Z,20.99
2023-05-19T15:54:39.207Z,20.54
2023-05-19T15:57:07.325Z,19.88
2023-05-19T15:59:35.370Z,19.56
2023-05-19T16:02:04.911Z,18.86
2023-05-19T16:04:33.407Z,18.95
2023-05-19T16:07:01.444Z,19.04
2023-05-19T16:09:29.502Z,20.38
2023-05-19T16:11:57.592Z,21.40
2023-05-19T16:14:29.404Z,20.96
2023-05-19T16:16:58.050Z,21.41
2023-05-19T16:19:30.530Z,21.79
2023-05-19T16:21:58.642Z,22.45
2023-05-19T16:24:26.688Z,21.99
2023-05-19T16:26:54.936Z,22.47
2023-05-19T16:29:23.027Z,22.07
2023-05-19T16:31:51.196Z,21.94
2023-05-19T16:34:19.295Z,22.48
2023-05-19T16:36:48.862Z,21.97
2023-05-19T16:39:16.916Z,21.61
2023-05-19T16:41:44.949Z,21.70
2023-05-19T16:44:14.529Z,20.91
2023-05-19T16:46:42.643Z,20.69
2023-05-19T16:49:11.074Z,20.05
2023-05-19T16:51:39.153Z,19.20
2023-05-19T16:54:08.832Z,18.63
2023-05-19T16:56:36.960Z,18.77
2023-05-19T16:59:34.004Z,19.56
2023-05-19T17:02:02.062Z,19.45
2023-05-19T17:04:31.001Z,20.17
2023-05-19T17:06:59.333Z,19.72
2023-05-19T17:09:28.733Z,19.54
2023-05-19T17:11:57.124Z,18.81
2023-05-19T17:14:25.234Z,18.28
2023-05-19T17:16:53.445Z,17.71
2023-05-19T17:19:21.554Z,17.62
2023-05-19T17:21:49.696Z,17.74
2023-05-19T17:24:17.849Z,17.81
2023-05-19T17:26:48.088Z,17.68
2023-05-19T17:29:16.113Z,17.49
2023-05-19T17:31:44.365Z,18.03
2023-05-19T17:34:12.407Z,17.77
2023-05-19T17:36:40.632Z,17.81
2023-05-19T17:39:08.785Z,17.92
2023-05-19T17:41:36.855Z,17.62
2023-05-19T17:44:06.888Z,17.64
2023-05-19T17:46:36.106Z,17.27
2023-05-19T17:49:04.240Z,17.49
2023-05-19T17:51:33.207Z,17.49
2023-05-19T17:54:01.868Z,17.21
2023-05-19T17:56:34.687Z,17.29
2023-05-19T17:59:03.236Z,17.05
2023-05-19T18:01:33.531Z,16.90
2023-05-19T18:04:02.417Z,17.02
2023-05-19T18:06:31.969Z,16.78
2023-05-19T18:09:01.753Z,16.73
2023-05-19T18:11:30.211Z,16.69
2023-05-19T18:13:58.742Z,16.47
2023-05-19T18:16:27.425Z,16.19
2023-05-19T18:18:56.903Z,16.06
2023-05-19T18:21:25.289Z,15.91
2023-05-19T18:23:53.436Z,16.04
2023-05-19T18:26:22.479Z,15.76
2023-05-19T18:28:50.532Z,15.73
2023-05-19T18:31:19.833Z,15.63
2023-05-19T18:33:48.327Z,15.78
2023-05-19T18:36:17.775Z,15.62
2023-05-19T18:38:47.321Z,15.65
2023-05-19T18:41:15.612Z,15.51
2023-05-19T18:43:43.661Z,15.46
2023-05-19T18:46:13.354Z,15.35
2023-05-19T18:48:41.799Z,15.22
2023-05-19T18:51:10.134Z,15.21
2023-05-19T18:53:39.530Z,15.18
2023-05-19T18:56:08.507Z,15.16
2023-05-19T18:58:36.616Z,15.05
2023-05-19T19:01:05.030Z,15.08
2023-05-19T19:03:33.254Z,15.05
2023-05-19T19:06:01.686Z,14.92
2023-05-19T19:08:29.714Z,14.86
2023-05-19T19:11:01.164Z,14.77
2023-05-19T19:13:29.463Z,14.69
2023-05-19T19:15:57.520Z,14.61
2023-05-19T19:18:26.572Z,14.67
2023-05-19T19:20:54.891Z,14.44
2023-05-19T19:23:22.924Z,14.40
2023-05-19T19:25:51.095Z,14.32
2023-05-19T19:28:20.756Z,14.29
2023-05-19T19:30:48.858Z,14.21
2023-05-19T19:33:16.981Z,14.13
2023-05-19T19:35:46.888Z,14.06
2023-05-19T19:38:15.088Z,14.15
2023-05-19T19:40:43.204Z,14.16
2023-05-19T19:43:11.264Z,14.13
2023-05-19T19:45:41.607Z,13.94
2023-05-19T19:48:09.794Z,14.04
2023-05-19T19:50:37.875Z,13.81
2023-05-19T19:53:05.869Z,13.85
2023-05-19T19:55:34.052Z,13.61
2023-05-19T19:58:02.209Z,13.68
2023-05-19T20:00:30.255Z,13.59
2023-05-19T20:03:04.429Z,13.44
2023-05-19T20:05:33.594Z,13.51
2023-05-19T20:08:01.752Z,13.38
2023-05-19T20:10:29.907Z,13.38
2023-05-19T20:12:58.903Z,13.31
2023-05-19T20:15:27.148Z,13.18
2023-05-19T20:17:55.216Z,13.20
2023-05-19T20:20:24.901Z,12.97
2023-05-19T20:22:53.064Z,13.01
2023-05-19T20:25:21.254Z,12.87
2023-05-19T20:27:49.317Z,12.83
2023-05-19T20:30:17.561Z,12.74
2023-05-19T20:32:46.620Z,12.68
2023-05-19T20:35:14.866Z,12.47
2023-05-19T20:37:44.325Z,12.37
2023-05-19T20:40:12.791Z,12.28
2023-05-19T20:42:40.921Z,12.17
2023-05-19T20:45:09.775Z,12.20
2023-05-19T20:47:37.948Z,11.99
2023-05-19T20:50:07.038Z,12.08
2023-05-19T20:52:35.054Z,12.12
2023-05-19T20:55:04.777Z,11.87
2023-05-19T20:57:32.881Z,11.87
2023-05-19T21:00:01.061Z,11.92
2023-05-19T21:02:29.197Z,11.84
2023-05-19T21:04:57.314Z,11.72
2023-05-19T21:07:26.037Z,11.64
2023-05-19T21:09:54.374Z,11.55
2023-05-19T21:12:25.224Z,11.54
2023-05-19T21:14:53.336Z,11.44
2023-05-19T21:17:21.405Z,11.31
2023-05-19T21:19:50.728Z,11.30
2023-05-19T21:22:19.036Z,11.23
2023-05-19T21:24:47.074Z,11.17
2023-05-19T21:27:15.106Z,11.09
2023-05-19T21:29:44.535Z,10.92
2023-05-19T21:32:12.608Z,11.05
2023-05-19T21:34:40.653Z,11.05
2023-05-19T21:37:08.719Z,11.11
2023-05-19T21:39:36.736Z,11.06
2023-05-19T21:42:05.223Z,10.99
2023-05-19T21:44:33.220Z,10.97
2023-05-19T21:47:02.613Z,10.97
2023-05-19T21:49:31.228Z,10.96
2023-05-19T21:51:59.452Z,10.95
2023-05-19T21:54:27.530Z,10.96
2023-05-19T21:56:55.603Z,10.89
2023-05-19T21:59:24.678Z,10.82
2023-05-19T22:01:52.926Z,10.87
2023-05-19T22:04:23.650Z,10.93
2023-05-19T22:06:51.652Z,10.87
2023-05-19T22:09:19.673Z,10.74
2023-05-19T22:11:47.721Z,10.81
2023-05-19T22:14:15.842Z,10.62
2023-05-19T22:16:44.093Z,10.71
2023-05-19T22:19:12.763Z,10.62
2023-05-19T22:21:42.351Z,10.53
2023-05-19T22:24:10.418Z,10.46
2023-05-19T22:26:42.552Z,10.42
2023-05-19T22:29:15.006Z,10.48
2023-05-19T22:31:43.094Z,10.43
2023-05-19T22:34:12.671Z,10.38
2023-05-19T22:36:44.120Z,10.39
2023-05-19T22:39:12.656Z,10.37
2023-05-19T22:41:41.120Z,10.35
2023-05-19T22:44:10.422Z,10.42
2023-05-19T22:46:38.527Z,10.41
2023-05-19T22:49:06.598Z,10.39
2023-05-19T22:51:34.764Z,10.30
2023-05-19T22:54:04.210Z,10.40
2023-05-19T22:56:32.300Z,10.36
2023-05-19T22:59:00.613Z,10.34
2023-05-19T23:01:28.716Z,10.22
2023-05-19T23:03:56.773Z,10.23
2023-05-19T23:06:25.005Z,10.16
2023-05-19T23:09:00.442Z,10.07
2023-05-19T23:11:29.868Z,9.99
2023-05-19T23:13:57.905Z,10.09
2023-05-19T23:16:26.106Z,10.02
2023-05-19T23:18:54.252Z,9.91
2023-05-19T23:21:22.343Z,9.90
2023-05-19T23:23:50.888Z,9.91
2023-05-19T23:26:18.924Z,9.81
2023-05-19T23:28:48.296Z,9.69
2023-05-19T23:31:16.387Z,9.57
2023-05-19T23:33:44.551Z,9.51
2023-05-19T23:36:12.621Z,9.54
2023-05-19T23:38:40.692Z,9.54
2023-05-19T23:41:08.710Z,9.48
2023-05-19T23:43:37.722Z,9.46
2023-05-19T23:46:07.266Z,9.50
2023-05-19T23:48:36.625Z,9.47
2023-05-19T23:51:04.789Z,9.48
2023-05-19T23:53:32.856Z,9.34
2023-05-19T23:56:01.158Z,9.29
2023-05-19T23:58:29.192Z,9.32
